Time;durP1;ratioP1;P1;durP2;ratioP2;P2;SDS_P1;SDS_P2;PMS_P1;PMS_P2;Temp;Humidity;BMP_temperature;BMP_pressure;BME280_temperature;BME280_humidity;BME280_pressure;Samples;Min_cycle;Max_cycle;Signal;HPM_P1;HPM_P2
2022/03/16 00:02:11;;;;;;;1.10;0.88;;;20.20;61.70;;;;;;5033278;28;20045;-68
2022/03/16 00:04:36;;;;;;;1.65;0.70;;;20.20;61.70;;;;;;5034377;28;20480;-68
2022/03/16 00:07:02;;;;;;;1.10;0.80;;;20.10;61.60;;;;;;5034150;28;20079;-68
2022/03/16 00:09:28;;;;;;;1.38;0.52;;;20.10;61.70;;;;;;5034180;28;20052;-68
2022/03/16 00:11:53;;;;;;;1.08;0.70;;;20.10;61.70;;;;;;5034088;28;20407;-68
2022/03/16 00:14:19;;;;;;;1.67;0.70;;;20.10;61.70;;;;;;5032716;28;20491;-68
2022/03/16 00:16:45;;;;;;;0.93;0.70;;;20.10;61.70;;;;;;5033853;28;20029;-68
2022/03/16 00:19:10;;;;;;;0.80;0.80;;;20.10;61.80;;;;;;5034154;28;20021;-68
2022/03/16 00:21:36;;;;;;;1.42;0.85;;;20.10;61.80;;;;;;5033571;28;20025;-68
2022/03/16 00:24:02;;;;;;;0.98;0.93;;;20.10;61.80;;;;;;5047917;28;20116;-68
2022/03/16 00:26:27;;;;;;;0.90;0.80;;;20.10;61.90;;;;;;5053603;28;20609;-68
2022/03/16 00:28:53;;;;;;;1.35;0.60;;;20.10;61.80;;;;;;5053746;28;20048;-68
2022/03/16 00:31:19;;;;;;;1.80;0.70;;;20.10;61.80;;;;;;5053963;28;20035;-68
2022/03/16 00:33:44;;;;;;;0.75;0.68;;;20.10;61.90;;;;;;5053536;28;20112;-69
2022/03/16 00:36:10;;;;;;;1.02;0.70;;;20.10;61.90;;;;;;5053480;28;20056;-68
2022/03/16 00:38:36;;;;;;;1.13;0.90;;;20.00;61.90;;;;;;5052428;28;20044;-68
2022/03/16 00:41:02;;;;;;;1.80;0.93;;;20.10;61.90;;;;;;5053523;28;20028;-68
2022/03/16 00:43:27;;;;;;;1.13;0.75;;;20.00;61.80;;;;;;5051757;28;20024;-68
2022/03/16 00:45:53;;;;;;;0.75;0.70;;;20.00;61.90;;;;;;5053302;28;20029;-68
2022/03/16 00:48:19;;;;;;;0.77;0.70;;;20.00;61.90;;;;;;5053290;28;20028;-68
2022/03/16 00:50:45;;;;;;;0.60;0.60;;;20.00;62.00;;;;;;5053126;28;20044;-68
2022/03/16 00:53:10;;;;;;;0.70;0.63;;;20.00;62.00;;;;;;5053537;28;20104;-68
2022/03/16 00:55:36;;;;;;;1.50;0.90;;;20.00;62.00;;;;;;5052927;28;20104;-68
2022/03/16 00:58:02;;;;;;;1.10;0.73;;;20.00;62.00;;;;;;5051926;28;20040;-68
2022/03/16 01:00:28;;;;;;;0.98;0.70;;;20.00;62.00;;;;;;5053229;28;20084;-68
2022/03/16 01:02:54;;;;;;;1.38;1.00;;;20.00;62.00;;;;;;5053244;28;20025;-68
2022/03/16 01:05:20;;;;;;;0.70;0.70;;;20.00;62.10;;;;;;5052902;28;20023;-68
2022/03/16 01:07:45;;;;;;;1.55;0.60;;;20.00;62.10;;;;;;5051904;28;20032;-68
2022/03/16 01:10:12;;;;;;;0.70;0.70;;;20.00;62.10;;;;;;5052936;28;20029;-68
2022/03/16 01:12:38;;;;;;;0.88;0.82;;;20.00;62.10;;;;;;5052865;28;20032;-68
2022/03/16 01:15:04;;;;;;;0.70;0.63;;;20.00;62.10;;;;;;5052877;28;20025;-68
2022/03/16 01:17:29;;;;;;;0.80;0.63;;;20.00;62.10;;;;;;5045086;28;20079;-68
2022/03/16 01:19:55;;;;;;;1.27;0.80;;;20.00;62.20;;;;;;5032765;28;20446;-68
2022/03/16 01:22:21;;;;;;;0.98;0.70;;;19.90;62.10;;;;;;5032628;28;20460;-67
2022/03/16 01:24:46;;;;;;;0.90;0.70;;;20.00;62.20;;;;;;5032641;28;20039;-68
2022/03/16 01:27:12;;;;;;;0.90;0.80;;;19.90;62.20;;;;;;5032875;28;20032;-68
2022/03/16 01:29:38;;;;;;;1.25;0.80;;;19.90;62.10;;;;;;5032664;28;20026;-68
2022/03/16 01:32:04;;;;;;;1.13;0.65;;;19.90;62.10;;;;;;5032783;28;20047;-68
2022/03/16 01:34:29;;;;;;;1.38;0.85;;;19.90;62.10;;;;;;5032356;28;20076;-68
2022/03/16 01:36:55;;;;;;;0.70;0.70;;;19.90;62.20;;;;;;5032564;28;20025;-68
2022/03/16 01:39:21;;;;;;;0.77;0.70;;;19.90;62.20;;;;;;5031522;28;20021;-68
2022/03/16 01:41:47;;;;;;;2.15;0.82;;;19.90;62.20;;;;;;5032735;28;20503;-68
2022/03/16 01:44:12;;;;;;;1.30;0.82;;;19.90;62.30;;;;;;5032522;28;20029;-69
2022/03/16 01:46:38;;;;;;;0.90;0.80;;;19.90;62.30;;;;;;5032309;28;20068;-68
2022/03/16 01:49:04;;;;;;;0.60;0.60;;;19.90;62.30;;;;;;5032334;28;20128;-68
2022/03/16 01:51:29;;;;;;;0.57;0.52;;;19.90;62.40;;;;;;5032498;28;20057;-68
2022/03/16 01:53:55;;;;;;;0.80;0.80;;;19.90;62.30;;;;;;5032582;28;20522;-68
2022/03/16 01:56:21;;;;;;;1.17;0.68;;;19.90;62.30;;;;;;5032261;28;20113;-68
2022/03/16 01:58:46;;;;;;;0.70;0.70;;;19.90;62.30;;;;;;5031055;28;20045;-69
2022/03/16 02:01:13;;;;;;;2.20;0.77;;;19.90;62.40;;;;;;5031331;28;20022;-68
2022/03/16 02:03:39;;;;;;;0.80;0.80;;;19.80;62.40;;;;;;5032042;28;20048;-68
2022/03/16 02:06:05;;;;;;;0.57;0.57;;;19.80;62.40;;;;;;5032457;28;20057;-68
2022/03/16 02:08:30;;;;;;;0.47;0.47;;;19.80;62.40;;;;;;5032399;28;20028;-68
2022/03/16 02:10:56;;;;;;;0.60;0.60;;;19.80;62.40;;;;;;5030951;28;20064;-68
2022/03/16 02:13:22;;;;;;;1.10;0.60;;;19.80;62.40;;;;;;5032296;28;20028;-68
2022/03/16 02:15:47;;;;;;;1.10;0.68;;;19.80;62.40;;;;;;5031888;28;20033;-68
2022/03/16 02:18:13;;;;;;;0.75;0.63;;;19.80;62.40;;;;;;5031807;28;20033;-68
2022/03/16 02:20:39;;;;;;;0.82;0.65;;;19.80;62.50;;;;;;5047414;28;20032;-68
2022/03/16 02:23:06;;;;;;;0.95;0.80;;;19.80;62.50;;;;;;5038104;28;20041;-68
2022/03/16 02:25:32;;;;;;;1.65;0.85;;;19.80;62.50;;;;;;5052086;28;20100;-68
2022/03/16 02:27:58;;;;;;;0.80;0.80;;;19.80;62.50;;;;;;5038097;28;20112;-68
2022/03/16 02:30:27;;;;;;;0.70;0.70;;;19.80;62.50;;;;;;5055804;28;20049;-68
2022/03/16 02:32:53;;;;;;;1.08;0.85;;;19.80;62.50;;;;;;5038036;28;20017;-68
2022/03/16 02:35:18;;;;;;;0.80;0.80;;;19.80;62.60;;;;;;5038159;28;20459;-68
2022/03/16 02:37:44;;;;;;;0.80;0.70;;;19.80;62.60;;;;;;5055680;28;20067;-68
2022/03/16 02:40:11;;;;;;;1.98;0.60;;;19.80;62.60;;;;;;5055699;28;20017;-68
2022/03/16 02:42:37;;;;;;;1.67;0.85;;;19.80;62.60;;;;;;5055599;28;20009;-68
2022/03/16 02:45:04;;;;;;;0.63;0.60;;;19.80;62.60;;;;;;5037612;28;20032;-68
2022/03/16 02:47:30;;;;;;;0.73;0.50;;;19.80;62.70;;;;;;5055724;28;20096;-68
2022/03/16 02:49:56;;;;;;;0.70;0.70;;;19.80;62.70;;;;;;5037879;28;20060;-68
2022/03/16 02:52:22;;;;;;;1.23;0.60;;;19.80;62.70;;;;;;5055706;28;20021;-68
2022/03/16 02:54:48;;;;;;;0.90;0.70;;;19.80;62.70;;;;;;5037583;28;20031;-68
2022/03/16 02:57:16;;;;;;;0.50;0.50;;;19.80;62.70;;;;;;5037832;28;20043;-68
2022/03/16 02:59:42;;;;;;;1.17;0.82;;;19.80;62.70;;;;;;5055228;28;20017;-68
2022/03/16 03:02:08;;;;;;;0.70;0.70;;;19.80;62.70;;;;;;5055495;28;20021;-68
2022/03/16 03:04:33;;;;;;;1.38;0.70;;;19.80;62.70;;;;;;5037913;28;20032;-68
2022/03/16 03:06:59;;;;;;;0.75;0.70;;;19.80;62.80;;;;;;5055057;28;20040;-68
2022/03/16 03:09:25;;;;;;;1.80;0.80;;;19.80;62.70;;;;;;5055506;28;20025;-68
2022/03/16 03:11:51;;;;;;;1.17;0.90;;;19.80;62.80;;;;;;5055172;28;20016;-68
2022/03/16 03:14:17;;;;;;;0.65;0.63;;;19.80;62.80;;;;;;5055034;28;20027;-68
2022/03/16 03:16:42;;;;;;;1.70;0.63;;;19.80;62.80;;;;;;5054757;28;20108;-68
2022/03/16 03:19:08;;;;;;;0.70;0.70;;;19.80;62.80;;;;;;5054946;28;20033;-68
2022/03/16 03:21:34;;;;;;;1.25;0.70;;;19.80;62.80;;;;;;5054860;28;20029;-68
2022/03/16 03:23:59;;;;;;;0.70;0.55;;;19.80;62.80;;;;;;5054706;28;20040;-68
2022/03/16 03:26:25;;;;;;;0.80;0.75;;;19.70;62.70;;;;;;5054968;28;20124;-68
2022/03/16 03:28:51;;;;;;;0.57;0.57;;;19.70;62.80;;;;;;5054573;28;20055;-68
2022/03/16 03:31:16;;;;;;;0.85;0.80;;;19.80;62.80;;;;;;5055081;28;20403;-68
2022/03/16 03:33:42;;;;;;;1.33;0.70;;;19.80;62.80;;;;;;5053697;28;20055;-68
2022/03/16 03:36:07;;;;;;;1.30;0.90;;;19.70;62.70;;;;;;5052734;28;20098;-68
2022/03/16 03:38:33;;;;;;;0.80;0.70;;;19.70;62.70;;;;;;5054110;28;20025;-68
2022/03/16 03:40:59;;;;;;;1.08;0.60;;;19.70;62.90;;;;;;5054654;28;20025;-68
2022/03/16 03:43:24;;;;;;;0.60;0.60;;;19.70;62.80;;;;;;5040994;28;20479;-68
2022/03/16 03:45:50;;;;;;;1.33;0.80;;;19.70;62.80;;;;;;5034588;28;20022;-68
2022/03/16 03:48:16;;;;;;;1.38;0.85;;;19.70;62.80;;;;;;5034505;28;20104;-68
2022/03/16 03:50:41;;;;;;;0.60;0.60;;;19.70;62.80;;;;;;5034525;28;20029;-68
2022/03/16 03:53:07;;;;;;;1.10;0.80;;;19.70;62.90;;;;;;5034695;28;20037;-68
2022/03/16 03:55:33;;;;;;;0.88;0.77;;;19.70;62.80;;;;;;5034405;28;20380;-68
2022/03/16 03:57:58;;;;;;;0.85;0.85;;;19.70;62.90;;;;;;5034169;28;20503;-68
2022/03/16 04:00:24;;;;;;;0.70;0.70;;;19.70;62.90;;;;;;5034324;28;20097;-68
2022/03/16 04:02:50;;;;;;;1.08;0.60;;;19.70;63.90;;;;;;5034453;28;20028;-68
2022/03/16 04:05:17;;;;;;;0.95;0.82;;;19.70;62.90;;;;;;5049821;28;20091;-68
2022/03/16 04:07:43;;;;;;;1.25;0.70;;;19.70;63.00;;;;;;5034208;28;20392;-68
2022/03/16 04:10:09;;;;;;;0.68;0.63;;;19.70;62.90;;;;;;5034430;28;20041;-68
2022/03/16 04:12:35;;;;;;;0.57;0.57;;;19.70;63.00;;;;;;5032939;28;20022;-68
2022/03/16 04:15:01;;;;;;;0.80;0.80;;;19.70;63.00;;;;;;5049400;28;20573;-68
2022/03/16 04:17:26;;;;;;;3.20;0.90;;;19.70;62.90;;;;;;5033706;28;20392;-68
2022/03/16 04:19:52;;;;;;;1.13;0.90;;;19.70;63.00;;;;;;5033973;28;20431;-68
2022/03/16 04:22:17;;;;;;;0.88;0.70;;;19.70;64.10;;;;;;5034096;28;20388;-68
2022/03/16 04:24:43;;;;;;;0.73;0.73;;;19.70;63.10;;;;;;5053564;28;20531;-68
2022/03/16 04:27:09;;;;;;;0.90;0.80;;;19.70;63.00;;;;;;5053550;28;20040;-68
2022/03/16 04:29:34;;;;;;;0.90;0.80;;;19.70;63.10;;;;;;5053861;28;20032;-68
2022/03/16 04:32:00;;;;;;;3.10;0.80;;;19.70;63.00;;;;;;5053579;28;20033;-68
2022/03/16 04:34:26;;;;;;;0.70;0.70;;;19.60;63.10;;;;;;5053791;28;20048;-68
2022/03/16 04:36:51;;;;;;;0.80;0.75;;;19.60;63.00;;;;;;5053506;28;20028;-68
2022/03/16 04:39:17;;;;;;;0.60;0.60;;;19.60;63.00;;;;;;5053776;28;20028;-68
2022/03/16 04:41:43;;;;;;;0.65;0.60;;;19.60;63.10;;;;;;5053250;28;20453;-68
2022/03/16 04:44:08;;;;;;;0.70;0.70;;;19.60;63.10;;;;;;5053311;28;20035;-68
2022/03/16 04:46:34;;;;;;;1.38;0.80;;;19.60;63.10;;;;;;5053530;28;20037;-68
2022/03/16 04:49:00;;;;;;;1.30;0.70;;;19.70;63.10;;;;;;5052850;28;20025;-68
2022/03/16 04:51:25;;;;;;;1.23;0.75;;;19.60;63.10;;;;;;5053235;28;20029;-68
2022/03/16 04:53:51;;;;;;;0.70;0.70;;;19.60;63.10;;;;;;5035608;28;20032;-68
2022/03/16 04:56:16;;;;;;;1.17;0.70;;;19.60;63.10;;;;;;5053026;28;20036;-68
2022/03/16 04:58:42;;;;;;;0.98;0.80;;;19.60;63.10;;;;;;5053407;28;20025;-68
2022/03/16 05:01:08;;;;;;;0.80;0.75;;;19.60;63.10;;;;;;5053028;28;20025;-68
2022/03/16 05:03:33;;;;;;;0.95;0.73;;;19.60;63.20;;;;;;5053175;28;20091;-68
2022/03/16 05:05:59;;;;;;;1.08;0.80;;;19.60;63.20;;;;;;5053081;28;20401;-68
2022/03/16 05:08:24;;;;;;;0.70;0.70;;;19.60;63.20;;;;;;5053084;28;20032;-68
2022/03/16 05:10:50;;;;;;;1.15;0.70;;;19.60;63.20;;;;;;5052738;28;20044;-68
2022/03/16 05:13:16;;;;;;;1.15;0.80;;;19.60;63.20;;;;;;5052927;28;20028;-68
2022/03/16 05:15:41;;;;;;;0.85;0.75;;;19.50;63.20;;;;;;5052979;28;20021;-68
2022/03/16 05:18:07;;;;;;;0.80;0.80;;;19.60;63.20;;;;;;5052585;28;20024;-68
2022/03/16 05:20:33;;;;;;;2.03;1.00;;;19.50;63.20;;;;;;5052963;28;20021;-68
2022/03/16 05:22:58;;;;;;;1.15;0.80;;;19.60;63.30;;;;;;5052425;28;20506;-68
2022/03/16 05:25:26;;;;;;;0.80;0.80;;;19.60;63.30;;;;;;5051375;28;20502;-68
2022/03/16 05:27:52;;;;;;;2.08;0.65;;;19.60;63.30;;;;;;5052679;28;20017;-68
2022/03/16 05:30:20;;;;;;;0.77;0.75;;;19.60;63.30;;;;;;5048693;28;20502;-68
2022/03/16 05:32:47;;;;;;;0.98;0.80;;;19.50;63.30;;;;;;5050316;28;20021;-68
2022/03/16 05:35:17;;;;;;;0.80;0.80;;;19.50;63.30;;;;;;5052811;28;20487;-68
2022/03/16 05:37:42;;;;;;;0.88;0.82;;;19.50;63.30;;;;;;5035980;28;20091;-68
2022/03/16 05:40:08;;;;;;;1.02;0.90;;;19.50;63.30;;;;;;5032629;28;20014;-68
2022/03/16 05:42:34;;;;;;;0.73;0.73;;;19.50;63.30;;;;;;5051768;28;20017;-68
2022/03/16 05:45:00;;;;;;;0.80;0.77;;;19.50;63.30;;;;;;5051531;28;20029;-68
2022/03/16 05:47:26;;;;;;;1.95;0.80;;;19.50;63.30;;;;;;5051683;28;20024;-68
2022/03/16 05:49:56;;;;;;;1.10;0.90;;;19.50;63.30;;;;;;5052582;28;20029;-68
2022/03/16 05:52:29;;;;;;;0.70;0.70;;;19.50;63.30;;;;;;5034745;28;20017;-68
2022/03/16 05:54:56;;;;;;;0.80;0.80;;;19.50;63.50;;;;;;5051013;28;20096;-68
2022/03/16 05:57:22;;;;;;;0.80;0.80;;;19.50;63.30;;;;;;5051434;28;20127;-68
2022/03/16 05:59:48;;;;;;;2.88;1.10;;;19.50;63.30;;;;;;5050920;28;20446;-68
2022/03/16 06:02:14;;;;;;;1.15;1.05;;;19.50;63.30;;;;;;5049145;28;20503;-68
2022/03/16 06:04:41;;;;;;;1.55;1.27;;;19.50;63.20;;;;;;5023671;28;20025;-68
2022/03/16 06:07:07;;;;;;;1.33;1.23;;;19.50;63.10;;;;;;5014668;28;20032;-68
2022/03/16 06:09:33;;;;;;;1.30;1.20;;;19.50;63.10;;;;;;5014482;28;20029;-69
2022/03/16 06:11:59;;;;;;;1.77;1.23;;;19.50;63.00;;;;;;5032306;28;20017;-68
2022/03/16 06:14:25;;;;;;;1.85;1.20;;;19.50;63.00;;;;;;5032048;28;20039;-68
2022/03/16 06:16:52;;;;;;;1.45;1.20;;;19.50;62.90;;;;;;5032791;28;20032;-68
2022/03/16 06:19:22;;;;;;;2.08;1.10;;;19.50;62.90;;;;;;5051908;28;20032;-68
2022/03/16 06:21:48;;;;;;;1.20;0.82;;;19.50;62.90;;;;;;5052329;28;20024;-68
2022/03/16 06:24:13;;;;;;;1.20;1.10;;;19.50;62.90;;;;;;5033725;28;20116;-68
2022/03/16 06:26:39;;;;;;;1.40;1.30;;;19.50;62.80;;;;;;5052064;28;20025;-68
2022/03/16 06:29:05;;;;;;;1.52;1.17;;;19.50;62.70;;;;;;5050673;28;20139;-68
2022/03/16 06:31:31;;;;;;;1.63;1.33;;;19.50;62.70;;;;;;5050755;28;20025;-69
2022/03/16 06:33:57;;;;;;;1.50;1.40;;;19.50;62.70;;;;;;5051867;28;20029;-68
2022/03/16 06:36:23;;;;;;;1.20;1.10;;;19.50;62.60;;;;;;5051789;28;20113;-68
2022/03/16 06:38:49;;;;;;;1.20;1.10;;;19.50;62.60;;;;;;5051689;28;20029;-69
2022/03/16 06:41:16;;;;;;;2.08;1.55;;;19.50;62.60;;;;;;5050740;28;20021;-68
2022/03/16 06:43:44;;;;;;;2.13;1.08;;;19.50;62.60;;;;;;5034489;28;20026;-69
2022/03/16 06:46:09;;;;;;;2.22;1.35;;;19.50;62.50;;;;;;5030413;28;20109;-68
2022/03/16 06:48:35;;;;;;;2.17;1.75;;;19.50;62.50;;;;;;5030932;28;20510;-68
2022/03/16 06:51:01;;;;;;;2.47;1.58;;;19.50;62.50;;;;;;5030457;28;20028;-68
2022/03/16 06:53:28;;;;;;;1.85;1.48;;;19.50;62.40;;;;;;5034980;28;20030;-68
2022/03/16 06:55:54;;;;;;;3.42;1.85;;;19.60;62.50;;;;;;5030520;28;20044;-68
2022/03/16 06:58:20;;;;;;;11.57;2.85;;;19.60;62.40;;;;;;5038636;28;20022;-68
2022/03/16 07:00:45;;;;;;;16.85;3.65;;;19.60;62.50;;;;;;5047594;28;20087;-68
2022/03/16 07:03:11;;;;;;;9.18;2.85;;;19.60;62.50;;;;;;5050981;28;20034;-68
2022/03/16 07:05:40;;;;;;;16.20;3.60;;;19.60;62.50;;;;;;5044057;28;20022;-68
2022/03/16 07:08:09;;;;;;;12.20;3.55;;;19.60;62.60;;;;;;5037401;28;20033;-68
2022/03/16 07:10:36;;;;;;;8.95;3.15;;;19.70;62.60;;;;;;5047251;28;20033;-68
2022/03/16 07:13:02;;;;;;;11.77;3.58;;;19.70;62.70;;;;;;5053272;28;20048;-68
2022/03/16 07:15:27;;;;;;;11.13;3.42;;;19.70;62.70;;;;;;5034762;28;20064;-68
2022/03/16 07:17:53;;;;;;;8.90;3.45;;;19.70;62.60;;;;;;5044400;28;20079;-68
2022/03/16 07:20:19;;;;;;;10.05;3.10;;;19.70;62.60;;;;;;5054505;28;20025;-68
2022/03/16 07:22:45;;;;;;;9.63;3.35;;;19.70;62.60;;;;;;5047361;28;20390;-68
2022/03/16 07:25:10;;;;;;;6.80;2.92;;;19.70;62.60;;;;;;5053996;28;20033;-68
2022/03/16 07:27:39;;;;;;;8.43;3.15;;;19.70;62.60;;;;;;5054914;28;20029;-68
2022/03/16 07:30:06;;;;;;;7.75;2.90;;;19.80;62.70;;;;;;5054873;28;20483;-68
2022/03/16 07:32:33;;;;;;;7.82;2.85;;;19.70;62.60;;;;;;5054442;28;20028;-68
2022/03/16 07:34:58;;;;;;;8.23;3.40;;;19.70;62.60;;;;;;5053838;28;20376;-68
2022/03/16 07:37:24;;;;;;;4.97;2.60;;;19.80;62.70;;;;;;5054620;28;20027;-68
2022/03/16 07:39:50;;;;;;;6.22;2.70;;;19.70;62.60;;;;;;5054794;28;20086;-68
2022/03/16 07:42:16;;;;;;;11.13;3.00;;;19.80;62.70;;;;;;5054442;28;20506;-68
2022/03/16 07:44:41;;;;;;;5.90;2.53;;;19.70;62.60;;;;;;5053746;28;20021;-68
2022/03/16 07:47:07;;;;;;;5.57;2.53;;;19.70;62.60;;;;;;5054518;28;20035;-68
2022/03/16 07:49:36;;;;;;;7.68;2.70;;;19.70;62.60;;;;;;5053184;28;20029;-68
2022/03/16 07:52:02;;;;;;;5.43;2.67;;;19.80;62.60;;;;;;5054426;28;20076;-68
2022/03/16 07:54:28;;;;;;;8.45;2.90;;;19.70;62.50;;;;;;5054557;28;20123;-68
2022/03/16 07:56:53;;;;;;;6.65;3.08;;;19.70;62.60;;;;;;5054436;28;20368;-68
2022/03/16 07:59:19;;;;;;;8.25;2.88;;;19.70;62.60;;;;;;5054486;28;20025;-68
2022/03/16 08:01:45;;;;;;;7.05;2.55;;;19.80;62.60;;;;;;5054280;28;20491;-68
2022/03/16 08:04:11;;;;;;;6.15;2.53;;;19.70;62.50;;;;;;5052857;28;20021;-68
2022/03/16 08:06:37;;;;;;;7.40;2.50;;;19.70;62.50;;;;;;5054436;28;20471;-68
2022/03/16 08:09:02;;;;;;;5.93;2.20;;;19.70;62.50;;;;;;5054138;28;20039;-68
2022/03/16 08:11:28;;;;;;;4.97;2.45;;;19.70;62.40;;;;;;5054006;28;20066;-68
2022/03/16 08:13:54;;;;;;;7.18;2.58;;;19.70;62.40;;;;;;5054502;28;20119;-68
2022/03/16 08:16:19;;;;;;;4.35;2.25;;;19.70;62.50;;;;;;5053935;28;20036;-68
2022/03/16 08:18:45;;;;;;;5.40;2.20;;;19.70;62.50;;;;;;5053715;28;20376;-68
2022/03/16 08:21:11;;;;;;;6.60;2.72;;;19.70;62.40;;;;;;5053945;28;20108;-68
2022/03/16 08:23:38;;;;;;;4.95;2.25;;;19.70;62.40;;;;;;5053040;28;20049;-68
2022/03/16 08:26:04;;;;;;;6.47;2.78;;;19.70;62.40;;;;;;5054068;28;20021;-68
2022/03/16 08:28:29;;;;;;;4.40;2.17;;;19.70;62.40;;;;;;5053963;28;20407;-68
2022/03/16 08:30:55;;;;;;;5.30;2.50;;;19.70;62.30;;;;;;5053740;28;20487;-68
2022/03/16 08:33:23;;;;;;;9.50;2.72;;;19.70;62.40;;;;;;5053474;28;20453;-68
2022/03/16 08:35:49;;;;;;;4.82;2.30;;;19.70;62.30;;;;;;5053883;28;20060;-68
2022/03/16 08:38:15;;;;;;;4.35;2.45;;;19.70;62.30;;;;;;5053588;28;20033;-68
2022/03/16 08:40:41;;;;;;;4.00;2.47;;;19.70;62.30;;;;;;5053517;28;20025;-68
2022/03/16 08:43:07;;;;;;;6.00;2.20;;;19.70;62.20;;;;;;5052433;28;20036;-68
2022/03/16 08:45:33;;;;;;;6.43;2.20;;;19.70;63.30;;;;;;5053505;28;20054;-68
2022/03/16 08:47:59;;;;;;;3.67;2.25;;;19.70;62.20;;;;;;5052169;28;20051;-68
2022/03/16 08:50:25;;;;;;;5.13;2.30;;;19.70;62.30;;;;;;5052144;28;20021;-68
2022/03/16 08:52:51;;;;;;;5.78;2.08;;;19.70;62.20;;;;;;5053435;28;20032;-68
2022/03/16 08:55:17;;;;;;;5.78;2.20;;;19.70;62.20;;;;;;5053326;28;20021;-68
2022/03/16 08:57:45;;;;;;;2.65;1.83;;;19.70;62.20;;;;;;5053087;28;20029;-68
2022/03/16 09:00:15;;;;;;;4.55;1.90;;;19.70;62.20;;;;;;5053212;28;20493;-68
2022/03/16 09:02:43;;;;;;;2.45;1.73;;;19.70;62.10;;;;;;5051980;28;20025;-68
2022/03/16 09:05:10;;;;;;;5.00;2.10;;;19.70;62.20;;;;;;5052998;28;20588;-68
2022/03/16 09:07:35;;;;;;;4.13;2.30;;;19.70;62.20;;;;;;5051846;28;20024;-68
2022/03/16 09:10:02;;;;;;;4.43;2.10;;;19.70;62.10;;;;;;5053189;28;20036;-68
2022/03/16 09:12:28;;;;;;;3.47;2.05;;;19.70;62.10;;;;;;5052845;28;20409;-68
2022/03/16 09:14:53;;;;;;;5.40;2.13;;;19.70;62.00;;;;;;5052890;28;20021;-68
2022/03/16 09:17:20;;;;;;;7.20;2.40;;;19.70;62.00;;;;;;5052547;28;20482;-68
2022/03/16 09:19:46;;;;;;;4.97;2.28;;;19.70;62.10;;;;;;5053083;28;20387;-68
2022/03/16 09:22:11;;;;;;;4.25;1.95;;;19.70;62.00;;;;;;5052670;28;20025;-68
2022/03/16 09:24:38;;;;;;;5.50;2.47;;;19.70;62.00;;;;;;5052591;28;20041;-68
2022/03/16 09:27:05;;;;;;;5.22;2.38;;;19.70;62.00;;;;;;5052736;28;20025;-68
2022/03/16 09:29:31;;;;;;;4.20;2.00;;;19.70;62.00;;;;;;5052576;28;20025;-68
2022/03/16 09:31:56;;;;;;;4.75;2.30;;;19.70;62.00;;;;;;5052673;28;20425;-68
2022/03/16 09:34:22;;;;;;;3.47;1.73;;;19.70;62.00;;;;;;5052689;28;20552;-68
2022/03/16 09:36:48;;;;;;;5.05;2.58;;;19.80;62.00;;;;;;5051244;28;20033;-68
2022/03/16 09:39:13;;;;;;;2.40;1.90;;;19.70;62.00;;;;;;5052660;28;20023;-68
2022/03/16 09:41:39;;;;;;;3.22;1.98;;;19.70;62.00;;;;;;5052315;28;20028;-68
2022/03/16 09:44:06;;;;;;;3.72;2.00;;;19.70;62.00;;;;;;5052437;28;20025;-68
2022/03/16 09:46:33;;;;;;;4.63;2.00;;;19.70;62.00;;;;;;5052092;28;20129;-68
2022/03/16 09:48:59;;;;;;;3.53;2.05;;;19.70;62.00;;;;;;5052467;28;20499;-68
2022/03/16 09:51:25;;;;;;;2.80;1.98;;;19.70;62.00;;;;;;5052378;28;20056;-68
2022/03/16 09:53:52;;;;;;;4.78;2.05;;;19.70;62.00;;;;;;5051291;28;20028;-68
2022/03/16 09:56:19;;;;;;;4.90;2.40;;;19.70;61.90;;;;;;5052017;28;20029;-68
2022/03/16 09:58:45;;;;;;;4.13;2.45;;;19.70;61.90;;;;;;5051097;28;20045;-68
2022/03/16 10:01:11;;;;;;;3.08;1.58;;;19.70;61.90;;;;;;5051094;28;20067;-68
2022/03/16 10:03:36;;;;;;;3.78;2.00;;;19.70;61.90;;;;;;5052193;28;20025;-68
2022/03/16 10:06:05;;;;;;;2.08;1.63;;;19.70;61.90;;;;;;5052182;28;20083;-68
2022/03/16 10:08:32;;;;;;;3.60;2.00;;;19.70;61.90;;;;;;5034648;28;20503;-68
2022/03/16 10:13:52;;;;;;;4.07;2.08;;;19.70;61.80;;;;;;5042251;28;20546;-68
2022/03/16 10:16:17;;;;;;;4.28;1.92;;;19.70;61.80;;;;;;5031903;28;20117;-68
2022/03/16 10:18:46;;;;;;;2.55;1.60;;;19.70;61.80;;;;;;5032022;28;20096;-68
2022/03/16 10:21:12;;;;;;;2.03;1.70;;;19.70;61.70;;;;;;5030889;28;20022;-68
2022/03/16 10:23:38;;;;;;;4.25;2.00;;;19.70;61.80;;;;;;5047286;28;20045;-68
2022/03/16 10:26:03;;;;;;;4.55;1.90;;;19.70;61.70;;;;;;5030786;28;20029;-68
2022/03/16 10:28:32;;;;;;;1.73;1.58;;;19.70;61.70;;;;;;5032094;28;20492;-68
2022/03/16 10:31:05;;;;;;;3.47;1.88;;;19.70;61.70;;;;;;5047345;28;20028;-68
2022/03/16 10:33:33;;;;;;;3.00;2.00;;;19.70;61.70;;;;;;5031871;28;20063;-68
2022/03/16 10:36:06;;;;;;;2.72;1.88;;;19.70;61.70;;;;;;5047344;28;20033;-68
2022/03/16 10:38:36;;;;;;;2.25;1.70;;;19.70;61.60;;;;;;5031868;28;20056;-68
2022/03/16 10:46:47;;;;;;;2.83;2.00;;;19.70;61.70;;;;;;5033743;28;20041;-68
2022/03/16 10:49:16;;;;;;;2.25;1.83;;;19.70;61.70;;;;;;5035672;28;20024;-68
2022/03/16 10:51:44;;;;;;;2.25;1.90;;;19.60;61.60;;;;;;5035633;28;20027;-68
2022/03/16 10:54:11;;;;;;;3.50;2.00;;;19.70;61.60;;;;;;5035894;28;20453;-68
2022/03/16 10:56:36;;;;;;;1.98;1.70;;;19.70;61.60;;;;;;5035297;28;20033;-68
2022/03/16 10:59:02;;;;;;;3.35;1.80;;;19.70;61.50;;;;;;5034521;28;20385;-68
2022/03/16 11:01:28;;;;;;;3.15;1.83;;;19.70;61.50;;;;;;5034260;28;20022;-68
2022/03/16 11:03:58;;;;;;;2.75;1.60;;;19.70;61.50;;;;;;5034436;28;20389;-68
2022/03/16 11:06:24;;;;;;;2.30;1.73;;;19.70;61.50;;;;;;5035368;28;20063;-68
2022/03/16 11:08:50;;;;;;;3.33;1.70;;;19.70;61.50;;;;;;5050546;28;20449;-68
2022/03/16 11:14:04;;;;;;;3.75;1.75;;;19.70;61.50;;;;;;5046753;28;20032;-68
2022/03/16 11:16:30;;;;;;;1.55;1.40;;;19.70;61.50;;;;;;5055203;28;20491;-68
2022/03/16 11:19:00;;;;;;;2.42;1.65;;;19.60;61.40;;;;;;5055281;28;20108;-68
2022/03/16 11:21:44;;;;;;;2.55;1.33;;;19.70;61.40;;;;;;5055063;28;20483;-68
2022/03/16 11:24:17;;;;;;;1.63;1.50;;;19.70;61.40;;;;;;5048882;28;20045;-68
2022/03/16 11:26:52;;;;;;;1.50;1.40;;;19.60;61.40;;;;;;5054042;28;20021;-68
2022/03/16 11:29:43;;;;;;;2.17;1.35;;;19.70;61.40;;;;;;5055154;28;20025;-68
2022/03/16 11:32:10;;;;;;;2.78;1.60;;;19.70;61.20;;;;;;5054914;28;20021;-68
2022/03/16 11:34:36;;;;;;;1.67;1.38;;;19.60;61.40;;;;;;5055126;28;20102;-68
2022/03/16 11:37:09;;;;;;;2.10;1.60;;;19.60;61.30;;;;;;5054831;28;20135;-68
2022/03/16 11:39:43;;;;;;;1.70;1.20;;;19.70;61.30;;;;;;5054795;28;20024;-68
2022/03/16 11:42:08;;;;;;;1.80;1.40;;;19.70;61.30;;;;;;5053670;28;20116;-68
2022/03/16 11:44:34;;;;;;;2.08;1.40;;;19.60;61.20;;;;;;5054832;28;20091;-68
2022/03/16 11:47:09;;;;;;;1.38;1.27;;;19.60;61.20;;;;;;5053433;28;20513;-68
2022/03/16 11:49:35;;;;;;;1.90;1.23;;;19.70;61.20;;;;;;5054655;28;20025;-68
2022/03/16 11:52:03;;;;;;;1.75;1.20;;;19.60;61.30;;;;;;5053610;28;20079;-68
2022/03/16 11:54:42;;;;;;;2.05;1.40;;;19.60;61.20;;;;;;5036679;28;20497;-68
2022/03/16 11:57:08;;;;;;;2.28;1.48;;;19.70;61.00;;;;;;5052885;28;20032;-68
2022/03/16 11:59:47;;;;;;;1.35;1.23;;;19.60;61.20;;;;;;5053525;28;20016;-68
2022/03/16 12:02:22;;;;;;;1.50;1.20;;;19.60;61.20;;;;;;5054317;28;20056;-68
2022/03/16 12:04:48;;;;;;;2.28;1.40;;;19.60;61.10;;;;;;5054210;28;20021;-68
2022/03/16 12:07:18;;;;;;;1.80;1.08;;;19.60;61.10;;;;;;5054562;28;20033;-68
2022/03/16 12:09:45;;;;;;;2.47;1.35;;;19.60;61.10;;;;;;5053032;28;20117;-68
2022/03/16 12:15:12;;;;;;;1.60;1.10;;;19.60;61.00;;;;;;5034227;28;20029;-68
2022/03/16 12:17:38;;;;;;;1.75;1.30;;;19.60;61.00;;;;;;5034116;28;20476;-68
2022/03/16 12:20:10;;;;;;;1.45;1.20;;;19.60;61.10;;;;;;5034115;28;20025;-68
2022/03/16 12:22:48;;;;;;;2.80;1.45;;;19.60;61.10;;;;;;5033860;28;20407;-68
2022/03/16 12:25:29;;;;;;;1.75;1.10;;;19.60;61.00;;;;;;5033847;28;20033;-68
2022/03/16 12:31:09;;;;;;;1.35;1.10;;;19.60;61.10;;;;;;5034318;28;20408;-68
2022/03/16 12:33:39;;;;;;;1.88;1.00;;;19.60;60.80;;;;;;5016540;28;20021;-68
2022/03/16 12:36:10;;;;;;;1.38;1.08;;;19.60;61.10;;;;;;5033856;28;20066;-68
2022/03/16 12:38:37;;;;;;;1.40;1.00;;;19.60;61.10;;;;;;5032402;28;20539;-68
2022/03/16 12:43:53;;;;;;;1.95;1.10;;;19.70;62.00;;;;;;5032747;28;20044;-68
2022/03/16 12:46:27;;;;;;;1.30;1.00;;;19.60;61.00;;;;;;5032465;28;20021;-68
2022/03/16 12:48:59;;;;;;;1.15;1.05;;;19.60;60.90;;;;;;5033497;28;20017;-68
2022/03/16 12:51:40;;;;;;;1.30;1.10;;;19.60;61.00;;;;;;5033429;28;20072;-68
2022/03/16 12:54:07;;;;;;;1.30;1.13;;;19.60;60.80;;;;;;5033390;28;20662;-68
2022/03/16 12:56:39;;;;;;;2.17;1.40;;;19.60;61.00;;;;;;5032372;28;20028;-68
2022/03/16 12:59:05;;;;;;;;;;;19.60;60.80;;;;;;5032962;28;20045;-68
2022/03/16 13:01:31;;;;;;;1.35;1.10;;;19.60;60.80;;;;;;5033497;28;19936;-68
2022/03/16 13:04:01;;;;;;;1.08;0.98;;;19.50;61.10;;;;;;5032282;28;20100;-68
2022/03/16 13:06:28;;;;;;;1.70;1.10;;;19.50;61.00;;;;;;5033248;28;20379;-68